sensor_id;sensor_type;location;lat;lon;timestamp;pressure;altitude;pressure_sealevel;temperature;humidity
50310;BME280;36207;51.850;21.698;2023-04-25T00:01:35;98685.84;;;13.66;55.88
50310;BME280;36207;51.850;21.698;2023-04-25T00:04:02;98688.39;;;13.61;55.63
50310;BME280;36207;51.850;21.698;2023-04-25T00:06:29;98684.69;;;13.58;55.76
50310;BME280;36207;51.850;21.698;2023-04-25T00:08:58;98680.70;;;13.56;55.76
50310;BME280;36207;51.850;21.698;2023-04-25T00:11:24;98674.20;;;13.55;56.01
50310;BME280;36207;51.850;21.698;2023-04-25T00:13:50;98669.60;;;13.54;55.98
50310;BME280;36207;51.850;21.698;2023-04-25T00:16:17;98666.42;;;13.55;56.26
50310;BME280;36207;51.850;21.698;2023-04-25T00:18:43;98663.00;;;13.54;56.49
50310;BME280;36207;51.850;21.698;2023-04-25T00:21:12;98662.18;;;13.53;56.96
50310;BME280;36207;51.850;21.698;2023-04-25T00:23:38;98656.25;;;13.51;56.69
50310;BME280;36207;51.850;21.698;2023-04-25T00:26:05;98652.20;;;13.49;57.16
50310;BME280;36207;51.850;21.698;2023-04-25T00:28:31;98648.70;;;13.46;57.34
50310;BME280;36207;51.850;21.698;2023-04-25T00:30:58;98646.14;;;13.41;57.08
50310;BME280;36207;51.850;21.698;2023-04-25T00:33:24;98644.89;;;13.36;56.96
50310;BME280;36207;51.850;21.698;2023-04-25T00:35:50;98637.64;;;13.32;57.23
50310;BME280;36207;51.850;21.698;2023-04-25T00:38:17;98639.16;;;13.28;57.24
50310;BME280;36207;51.850;21.698;2023-04-25T00:40:43;98636.88;;;13.25;57.32
50310;BME280;36207;51.850;21.698;2023-04-25T00:43:09;98631.49;;;13.21;57.35
50310;BME280;36207;51.850;21.698;2023-04-25T00:45:38;98627.70;;;13.15;57.08
50310;BME280;36207;51.850;21.698;2023-04-25T00:48:05;98624.59;;;13.11;57.18
50310;BME280;36207;51.850;21.698;2023-04-25T00:50:33;98622.30;;;13.07;57.40
50310;BME280;36207;51.850;21.698;2023-04-25T00:53:01;98619.16;;;13.04;57.66
50310;BME280;36207;51.850;21.698;2023-04-25T00:55:29;98618.77;;;13.01;57.88
50310;BME280;36207;51.850;21.698;2023-04-25T00:57:57;98618.36;;;12.95;58.10
50310;BME280;36207;51.850;21.698;2023-04-25T01:00:24;98614.20;;;12.88;57.82
50310;BME280;36207;51.850;21.698;2023-04-25T01:02:50;98610.58;;;12.82;57.54
50310;BME280;36207;51.850;21.698;2023-04-25T01:05:17;98610.66;;;12.76;57.49
50310;BME280;36207;51.850;21.698;2023-04-25T01:07:45;98609.95;;;12.67;57.89
50310;BME280;36207;51.850;21.698;2023-04-25T01:10:11;98607.36;;;12.59;58.03
50310;BME280;36207;51.850;21.698;2023-04-25T01:12:38;98607.42;;;12.51;58.13
50310;BME280;36207;51.850;21.698;2023-04-25T01:15:05;98605.02;;;12.45;58.47
50310;BME280;36207;51.850;21.698;2023-04-25T01:17:34;98603.66;;;12.39;58.49
50310;BME280;36207;51.850;21.698;2023-04-25T01:20:04;98605.13;;;12.34;58.61
50310;BME280;36207;51.850;21.698;2023-04-25T01:22:32;98606.48;;;12.27;58.78
50310;BME280;36207;51.850;21.698;2023-04-25T01:24:59;98606.90;;;12.23;58.76
50310;BME280;36207;51.850;21.698;2023-04-25T01:27:26;98605.49;;;12.22;58.89
50310;BME280;36207;51.850;21.698;2023-04-25T01:29:54;98603.43;;;12.23;58.45
50310;BME280;36207;51.850;21.698;2023-04-25T01:32:23;98604.47;;;12.23;58.92
50310;BME280;36207;51.850;21.698;2023-04-25T01:34:49;98606.14;;;12.24;58.55
50310;BME280;36207;51.850;21.698;2023-04-25T01:37:16;98605.52;;;12.21;58.74
50310;BME280;36207;51.850;21.698;2023-04-25T01:39:44;98602.91;;;12.19;58.80
50310;BME280;36207;51.850;21.698;2023-04-25T01:42:10;98603.59;;;12.17;58.77
50310;BME280;36207;51.850;21.698;2023-04-25T01:44:37;98602.10;;;12.15;58.74
50310;BME280;36207;51.850;21.698;2023-04-25T01:47:03;98600.35;;;12.12;58.85
50310;BME280;36207;51.850;21.698;2023-04-25T01:49:30;98600.97;;;12.10;59.09
50310;BME280;36207;51.850;21.698;2023-04-25T01:51:56;98605.01;;;12.05;59.24
50310;BME280;36207;51.850;21.698;2023-04-25T01:54:22;98608.93;;;11.96;59.37
50310;BME280;36207;51.850;21.698;2023-04-25T01:56:51;98605.85;;;11.88;60.08
50310;BME280;36207;51.850;21.698;2023-04-25T01:59:18;98604.52;;;11.82;59.96
50310;BME280;36207;51.850;21.698;2023-04-25T02:01:46;98608.27;;;11.81;59.71
50310;BME280;36207;51.850;21.698;2023-04-25T02:04:12;98604.61;;;11.80;59.09
50310;BME280;36207;51.850;21.698;2023-04-25T02:06:38;98604.49;;;11.81;59.16
50310;BME280;36207;51.850;21.698;2023-04-25T02:09:05;98608.23;;;11.83;59.57
50310;BME280;36207;51.850;21.698;2023-04-25T02:11:31;98614.08;;;11.80;59.55
50310;BME280;36207;51.850;21.698;2023-04-25T02:13:58;98619.58;;;11.74;59.83
50310;BME280;36207;51.850;21.698;2023-04-25T02:16:24;98621.26;;;11.66;59.58
50310;BME280;36207;51.850;21.698;2023-04-25T02:18:51;98624.73;;;11.61;59.95
50310;BME280;36207;51.850;21.698;2023-04-25T02:21:18;98629.19;;;11.58;60.20
50310;BME280;36207;51.850;21.698;2023-04-25T02:23:45;98632.79;;;11.57;59.82
50310;BME280;36207;51.850;21.698;2023-04-25T02:26:14;98632.02;;;11.56;60.10
50310;BME280;36207;51.850;21.698;2023-04-25T02:28:41;98635.65;;;11.51;60.38
50310;BME280;36207;51.850;21.698;2023-04-25T02:31:07;98636.32;;;11.47;59.82
50310;BME280;36207;51.850;21.698;2023-04-25T02:33:34;98636.07;;;11.42;59.83
50310;BME280;36207;51.850;21.698;2023-04-25T02:36:00;98632.85;;;11.37;59.71
50310;BME280;36207;51.850;21.698;2023-04-25T02:38:27;98628.84;;;11.31;59.86
50310;BME280;36207;51.850;21.698;2023-04-25T02:40:53;98626.12;;;11.21;59.85
50310;BME280;36207;51.850;21.698;2023-04-25T02:43:19;98623.19;;;11.11;59.99
50310;BME280;36207;51.850;21.698;2023-04-25T02:45:46;98623.02;;;11.01;59.91
50310;BME280;36207;51.850;21.698;2023-04-25T02:48:13;98620.48;;;10.93;60.12
50310;BME280;36207;51.850;21.698;2023-04-25T02:50:39;98621.13;;;10.87;60.67
50310;BME280;36207;51.850;21.698;2023-04-25T02:53:06;98618.65;;;10.83;61.27
50310;BME280;36207;51.850;21.698;2023-04-25T02:55:32;98616.81;;;10.82;61.70
50310;BME280;36207;51.850;21.698;2023-04-25T02:57:58;98618.33;;;10.83;61.37
50310;BME280;36207;51.850;21.698;2023-04-25T03:00:25;98619.34;;;10.83;60.98
50310;BME280;36207;51.850;21.698;2023-04-25T03:02:51;98618.55;;;10.81;61.71
50310;BME280;36207;51.850;21.698;2023-04-25T03:05:18;98614.90;;;10.78;62.03
50310;BME280;36207;51.850;21.698;2023-04-25T03:07:44;98613.27;;;10.78;62.34
50310;BME280;36207;51.850;21.698;2023-04-25T03:10:12;98615.95;;;10.81;61.79
50310;BME280;36207;51.850;21.698;2023-04-25T03:12:39;98618.23;;;10.82;61.71
50310;BME280;36207;51.850;21.698;2023-04-25T03:15:05;98621.52;;;10.83;61.75
50310;BME280;36207;51.850;21.698;2023-04-25T03:17:32;98620.67;;;10.82;61.61
50310;BME280;36207;51.850;21.698;2023-04-25T03:19:58;98616.36;;;10.81;61.63
50310;BME280;36207;51.850;21.698;2023-04-25T03:22:24;98617.87;;;10.82;61.61
50310;BME280;36207;51.850;21.698;2023-04-25T03:24:51;98616.20;;;10.83;61.67
50310;BME280;36207;51.850;21.698;2023-04-25T03:27:17;98612.76;;;10.85;61.89
50310;BME280;36207;51.850;21.698;2023-04-25T03:29:44;98612.35;;;10.87;61.99
50310;BME280;36207;51.850;21.698;2023-04-25T03:32:10;98615.05;;;10.87;62.23
50310;BME280;36207;51.850;21.698;2023-04-25T03:34:36;98617.16;;;10.85;62.12
50310;BME280;36207;51.850;21.698;2023-04-25T03:37:03;98621.38;;;10.80;62.27
50310;BME280;36207;51.850;21.698;2023-04-25T03:39:29;98624.52;;;10.75;62.64
50310;BME280;36207;51.850;21.698;2023-04-25T03:41:56;98623.11;;;10.70;63.18
50310;BME280;36207;51.850;21.698;2023-04-25T03:44:22;98625.42;;;10.68;62.74
50310;BME280;36207;51.850;21.698;2023-04-25T03:46:50;98631.09;;;10.69;62.47
50310;BME280;36207;51.850;21.698;2023-04-25T03:49:16;98625.52;;;10.71;62.87
50310;BME280;36207;51.850;21.698;2023-04-25T03:51:43;98623.66;;;10.75;62.85
50310;BME280;36207;51.850;21.698;2023-04-25T03:54:09;98623.55;;;10.76;62.75
50310;BME280;36207;51.850;21.698;2023-04-25T03:56:35;98622.75;;;10.77;62.49
50310;BME280;36207;51.850;21.698;2023-04-25T03:59:02;98622.31;;;10.81;62.64
50310;BME280;36207;51.850;21.698;2023-04-25T04:01:28;98622.13;;;10.86;62.53
50310;BME280;36207;51.850;21.698;2023-04-25T04:03:55;98625.14;;;10.90;62.76
50310;BME280;36207;51.850;21.698;2023-04-25T04:06:21;98628.73;;;10.93;62.82
50310;BME280;36207;51.850;21.698;2023-04-25T04:08:47;98626.48;;;10.98;62.85
50310;BME280;36207;51.850;21.698;2023-04-25T04:11:14;98632.77;;;11.04;62.84
50310;BME280;36207;51.850;21.698;2023-04-25T04:13:40;98633.30;;;11.10;62.96
50310;BME280;36207;51.850;21.698;2023-04-25T04:16:07;98632.68;;;11.17;62.99
50310;BME280;36207;51.850;21.698;2023-04-25T04:18:33;98633.38;;;11.25;63.06
50310;BME280;36207;51.850;21.698;2023-04-25T04:21:00;98635.63;;;11.30;63.08
50310;BME280;36207;51.850;21.698;2023-04-25T04:23:26;98638.13;;;11.37;63.11
50310;BME280;36207;51.850;21.698;2023-04-25T04:25:54;98642.98;;;11.46;63.13
50310;BME280;36207;51.850;21.698;2023-04-25T04:28:22;98641.48;;;11.53;63.37
50310;BME280;36207;51.850;21.698;2023-04-25T04:30:48;98642.20;;;11.60;63.43
50310;BME280;36207;51.850;21.698;2023-04-25T04:33:17;98643.45;;;11.68;63.37
50310;BME280;36207;51.850;21.698;2023-04-25T04:35:46;98650.27;;;11.75;63.28
50310;BME280;36207;51.850;21.698;2023-04-25T04:38:13;98656.91;;;11.82;63.39
50310;BME280;36207;51.850;21.698;2023-04-25T04:40:41;98658.39;;;11.88;63.30
50310;BME280;36207;51.850;21.698;2023-04-25T04:43:11;98656.80;;;11.92;63.22
50310;BME280;36207;51.850;21.698;2023-04-25T04:45:37;98656.09;;;11.97;63.39
50310;BME280;36207;51.850;21.698;2023-04-25T04:48:06;98655.42;;;12.01;63.48
50310;BME280;36207;51.850;21.698;2023-04-25T04:50:33;98660.48;;;12.07;63.49
50310;BME280;36207;51.850;21.698;2023-04-25T04:53:00;98659.34;;;12.13;63.38
50310;BME280;36207;51.850;21.698;2023-04-25T04:55:26;98656.86;;;12.18;63.37
50310;BME280;36207;51.850;21.698;2023-04-25T04:57:52;98658.61;;;12.23;63.39
50310;BME280;36207;51.850;21.698;2023-04-25T05:00:19;98657.63;;;12.27;63.42
50310;BME280;36207;51.850;21.698;2023-04-25T05:02:46;98655.29;;;12.29;63.27
50310;BME280;36207;51.850;21.698;2023-04-25T05:05:13;98658.23;;;12.32;63.30
50310;BME280;36207;51.850;21.698;2023-04-25T05:07:39;98658.52;;;12.31;63.30
50310;BME280;36207;51.850;21.698;2023-04-25T05:10:06;98657.38;;;12.31;63.32
50310;BME280;36207;51.850;21.698;2023-04-25T05:12:32;98650.34;;;12.34;63.60
50310;BME280;36207;51.850;21.698;2023-04-25T05:14:59;98653.15;;;12.37;63.59
50310;BME280;36207;51.850;21.698;2023-04-25T05:17:26;98650.83;;;12.38;63.46
50310;BME280;36207;51.850;21.698;2023-04-25T05:19:52;98650.30;;;12.38;63.62
50310;BME280;36207;51.850;21.698;2023-04-25T05:22:18;98653.63;;;12.41;63.61
50310;BME280;36207;51.850;21.698;2023-04-25T05:24:45;98655.00;;;12.44;63.71
50310;BME280;36207;51.850;21.698;2023-04-25T05:27:11;98653.53;;;12.46;63.67
50310;BME280;36207;51.850;21.698;2023-04-25T05:29:37;98653.56;;;12.50;63.61
50310;BME280;36207;51.850;21.698;2023-04-25T05:32:05;98649.92;;;12.54;63.77
50310;BME280;36207;51.850;21.698;2023-04-25T05:34:31;98646.73;;;12.60;63.83
50310;BME280;36207;51.850;21.698;2023-04-25T05:36:57;98652.46;;;12.66;64.17
50310;BME280;36207;51.850;21.698;2023-04-25T05:39:24;98657.28;;;12.72;64.05
50310;BME280;36207;51.850;21.698;2023-04-25T05:41:50;98655.76;;;12.75;63.88
50310;BME280;36207;51.850;21.698;2023-04-25T05:44:16;98658.88;;;12.79;63.87
50310;BME280;36207;51.850;21.698;2023-04-25T05:46:43;98660.84;;;12.83;64.05
50310;BME280;36207;51.850;21.698;2023-04-25T05:49:09;98661.10;;;12.86;64.09
50310;BME280;36207;51.850;21.698;2023-04-25T05:51:36;98662.15;;;12.87;64.07
50310;BME280;36207;51.850;21.698;2023-04-25T05:54:02;98665.13;;;12.90;64.12
50310;BME280;36207;51.850;21.698;2023-04-25T05:56:28;98663.64;;;12.91;64.13
50310;BME280;36207;51.850;21.698;2023-04-25T05:58:54;98664.31;;;12.92;64.05
50310;BME280;36207;51.850;21.698;2023-04-25T06:01:22;98661.75;;;12.93;63.79
50310;BME280;36207;51.850;21.698;2023-04-25T06:03:49;98663.27;;;12.93;64.04
50310;BME280;36207;51.850;21.698;2023-04-25T06:06:17;98665.45;;;12.93;64.17
50310;BME280;36207;51.850;21.698;2023-04-25T06:08:43;98668.42;;;12.92;64.05
50310;BME280;36207;51.850;21.698;2023-04-25T06:11:10;98666.20;;;12.93;64.24
50310;BME280;36207;51.850;21.698;2023-04-25T06:13:36;98666.74;;;12.95;64.39
50310;BME280;36207;51.850;21.698;2023-04-25T06:16:03;98667.14;;;12.96;64.33
50310;BME280;36207;51.850;21.698;2023-04-25T06:18:29;98663.64;;;12.98;64.44
50310;BME280;36207;51.850;21.698;2023-04-25T06:20:56;98660.20;;;12.97;64.32
50310;BME280;36207;51.850;21.698;2023-04-25T06:23:22;98660.50;;;12.96;64.25
50310;BME280;36207;51.850;21.698;2023-04-25T06:25:49;98657.63;;;12.99;64.19
50310;BME280;36207;51.850;21.698;2023-04-25T06:28:15;98656.61;;;13.01;64.46
50310;BME280;36207;51.850;21.698;2023-04-25T06:30:41;98659.05;;;13.00;64.80
50310;BME280;36207;51.850;21.698;2023-04-25T06:33:07;98662.79;;;12.98;64.56
50310;BME280;36207;51.850;21.698;2023-04-25T06:35:34;98664.73;;;12.95;64.20
50310;BME280;36207;51.850;21.698;2023-04-25T06:38:01;98661.63;;;12.96;64.37
50310;BME280;36207;51.850;21.698;2023-04-25T06:40:27;98662.25;;;12.97;64.35
50310;BME280;36207;51.850;21.698;2023-04-25T06:42:53;98664.96;;;12.99;64.48
50310;BME280;36207;51.850;21.698;2023-04-25T06:45:20;98665.70;;;12.99;64.44
50310;BME280;36207;51.850;21.698;2023-04-25T06:47:46;98664.75;;;12.97;64.37
50310;BME280;36207;51.850;21.698;2023-04-25T06:50:12;98666.60;;;12.93;64.51
50310;BME280;36207;51.850;21.698;2023-04-25T06:52:39;98666.70;;;12.92;64.48
50310;BME280;36207;51.850;21.698;2023-04-25T06:55:05;98665.58;;;12.93;64.67
50310;BME280;36207;51.850;21.698;2023-04-25T06:57:32;98666.98;;;12.96;64.84
50310;BME280;36207;51.850;21.698;2023-04-25T06:59:58;98673.66;;;12.95;64.75
50310;BME280;36207;51.850;21.698;2023-04-25T07:02:24;98676.64;;;12.92;64.71
50310;BME280;36207;51.850;21.698;2023-04-25T07:04:51;98677.66;;;12.89;64.84
50310;BME280;36207;51.850;21.698;2023-04-25T07:07:17;98679.48;;;12.86;64.87
50310;BME280;36207;51.850;21.698;2023-04-25T07:09:43;98677.54;;;12.86;65.02
50310;BME280;36207;51.850;21.698;2023-04-25T07:12:10;98678.48;;;12.85;64.96
50310;BME280;36207;51.850;21.698;2023-04-25T07:14:36;98684.75;;;12.83;65.00
50310;BME280;36207;51.850;21.698;2023-04-25T07:17:02;98686.40;;;12.83;64.88
50310;BME280;36207;51.850;21.698;2023-04-25T07:19:28;98686.55;;;12.83;64.80
50310;BME280;36207;51.850;21.698;2023-04-25T07:21:55;98682.61;;;12.83;64.79
50310;BME280;36207;51.850;21.698;2023-04-25T07:24:22;98685.70;;;12.84;64.98
50310;BME280;36207;51.850;21.698;2023-04-25T07:26:48;98685.75;;;12.83;64.92
50310;BME280;36207;51.850;21.698;2023-04-25T07:29:14;98690.31;;;12.83;65.02
50310;BME280;36207;51.850;21.698;2023-04-25T07:31:40;98691.05;;;12.84;64.89
50310;BME280;36207;51.850;21.698;2023-04-25T07:34:07;98692.98;;;12.84;64.90
50310;BME280;36207;51.850;21.698;2023-04-25T07:36:33;98692.59;;;12.83;65.05
50310;BME280;36207;51.850;21.698;2023-04-25T07:39:00;98700.42;;;12.83;64.94
50310;BME280;36207;51.850;21.698;2023-04-25T07:41:26;98698.96;;;12.82;64.80
50310;BME280;36207;51.850;21.698;2023-04-25T07:43:52;98699.13;;;12.78;65.07
50310;BME280;36207;51.850;21.698;2023-04-25T07:46:19;98699.32;;;12.75;65.16
50310;BME280;36207;51.850;21.698;2023-04-25T07:48:45;98705.63;;;12.75;65.03
50310;BME280;36207;51.850;21.698;2023-04-25T07:51:12;98705.63;;;12.75;64.94
50310;BME280;36207;51.850;21.698;2023-04-25T07:53:37;98707.73;;;12.75;65.00
50310;BME280;36207;51.850;21.698;2023-04-25T07:56:04;98711.39;;;12.76;64.87
50310;BME280;36207;51.850;21.698;2023-04-25T07:58:30;98710.66;;;12.74;64.91
50310;BME280;36207;51.850;21.698;2023-04-25T08:00:57;98714.51;;;12.70;64.76
50310;BME280;36207;51.850;21.698;2023-04-25T08:03:23;98718.84;;;12.66;64.76
50310;BME280;36207;51.850;21.698;2023-04-25T08:05:49;98722.34;;;12.62;64.61
50310;BME280;36207;51.850;21.698;2023-04-25T08:08:16;98727.09;;;12.61;64.67
50310;BME280;36207;51.850;21.698;2023-04-25T08:10:42;98732.02;;;12.62;64.70
50310;BME280;36207;51.850;21.698;2023-04-25T08:13:09;98735.52;;;12.62;64.76
50310;BME280;36207;51.850;21.698;2023-04-25T08:15:35;98733.89;;;12.61;64.88
50310;BME280;36207;51.850;21.698;2023-04-25T08:18:02;98739.29;;;12.61;64.93
50310;BME280;36207;51.850;21.698;2023-04-25T08:20:29;98740.70;;;12.60;64.80
50310;BME280;36207;51.850;21.698;2023-04-25T08:22:55;98738.92;;;12.57;64.87
50310;BME280;36207;51.850;21.698;2023-04-25T08:25:22;98738.11;;;12.57;65.15
50310;BME280;36207;51.850;21.698;2023-04-25T08:27:48;98735.52;;;12.56;65.20
50310;BME280;36207;51.850;21.698;2023-04-25T08:30:14;98738.20;;;12.59;65.35
50310;BME280;36207;51.850;21.698;2023-04-25T08:32:41;98739.75;;;12.60;65.30
50310;BME280;36207;51.850;21.698;2023-04-25T08:35:07;98732.98;;;12.61;65.20
50310;BME280;36207;51.850;21.698;2023-04-25T08:37:34;98728.18;;;12.60;65.25
50310;BME280;36207;51.850;21.698;2023-04-25T08:40:00;98723.07;;;12.56;65.42
50310;BME280;36207;51.850;21.698;2023-04-25T08:42:27;98720.86;;;12.55;65.76
50310;BME280;36207;51.850;21.698;2023-04-25T08:44:55;98719.14;;;12.55;65.85
50310;BME280;36207;51.850;21.698;2023-04-25T08:47:22;98719.05;;;12.55;65.88
50310;BME280;36207;51.850;21.698;2023-04-25T08:49:49;98724.20;;;12.58;65.87
50310;BME280;36207;51.850;21.698;2023-04-25T08:52:22;98728.09;;;12.57;65.86
50310;BME280;36207;51.850;21.698;2023-04-25T08:54:51;98729.56;;;12.58;65.89
50310;BME280;36207;51.850;21.698;2023-04-25T08:57:19;98733.98;;;12.59;65.87
50310;BME280;36207;51.850;21.698;2023-04-25T08:59:47;98734.33;;;12.60;65.78
50310;BME280;36207;51.850;21.698;2023-04-25T09:02:14;98739.65;;;12.62;65.87
50310;BME280;36207;51.850;21.698;2023-04-25T09:04:45;98743.52;;;12.66;66.00
50310;BME280;36207;51.850;21.698;2023-04-25T09:07:12;98742.40;;;12.66;66.10
50310;BME280;36207;51.850;21.698;2023-04-25T09:09:38;98745.73;;;12.65;65.78
50310;BME280;36207;51.850;21.698;2023-04-25T09:12:05;98747.58;;;12.62;65.62
50310;BME280;36207;51.850;21.698;2023-04-25T09:14:32;98750.52;;;12.60;65.82
50310;BME280;36207;51.850;21.698;2023-04-25T09:17:00;98750.95;;;12.57;65.95
50310;BME280;36207;51.850;21.698;2023-04-25T09:21:59;98756.61;;;12.48;65.93
50310;BME280;36207;51.850;21.698;2023-04-25T09:24:45;98757.29;;;12.46;65.91
50310;BME280;36207;51.850;21.698;2023-04-25T09:27:17;98756.06;;;12.41;65.90
50310;BME280;36207;51.850;21.698;2023-04-25T09:29:44;98761.86;;;12.37;65.85
50310;BME280;36207;51.850;21.698;2023-04-25T09:32:29;98758.04;;;12.36;65.88
50310;BME280;36207;51.850;21.698;2023-04-25T09:34:56;98762.45;;;12.37;66.22
50310;BME280;36207;51.850;21.698;2023-04-25T09:37:28;98761.94;;;12.39;66.32
50310;BME280;36207;51.850;21.698;2023-04-25T09:39:59;98760.34;;;12.39;66.37
50310;BME280;36207;51.850;21.698;2023-04-25T09:42:29;98763.48;;;12.37;66.16
50310;BME280;36207;51.850;21.698;2023-04-25T09:44:58;98762.86;;;12.36;66.15
50310;BME280;36207;51.850;21.698;2023-04-25T09:47:26;98762.45;;;12.37;66.16
50310;BME280;36207;51.850;21.698;2023-04-25T09:49:53;98766.52;;;12.37;66.35
50310;BME280;36207;51.850;21.698;2023-04-25T09:52:21;98766.20;;;12.37;66.34
50310;BME280;36207;51.850;21.698;2023-04-25T09:54:49;98769.85;;;12.35;66.16
50310;BME280;36207;51.850;21.698;2023-04-25T09:57:17;98776.23;;;12.34;66.18
50310;BME280;36207;51.850;21.698;2023-04-25T09:59:52;98778.89;;;12.31;66.23
50310;BME280;36207;51.850;21.698;2023-04-25T10:02:21;98779.00;;;12.28;66.17
50310;BME280;36207;51.850;21.698;2023-04-25T10:04:49;98779.25;;;12.25;66.23
50310;BME280;36207;51.850;21.698;2023-04-25T10:07:19;98781.05;;;12.26;66.40
50310;BME280;36207;51.850;21.698;2023-04-25T10:09:48;98782.23;;;12.27;66.43
50310;BME280;36207;51.850;21.698;2023-04-25T10:12:18;98784.39;;;12.29;66.66
50310;BME280;36207;51.850;21.698;2023-04-25T10:14:46;98786.45;;;12.28;66.59
50310;BME280;36207;51.850;21.698;2023-04-25T10:17:14;98787.27;;;12.24;66.42
50310;BME280;36207;51.850;21.698;2023-04-25T10:19:41;98791.16;;;12.18;66.66
50310;BME280;36207;51.850;21.698;2023-04-25T10:22:13;98793.59;;;12.14;66.41
50310;BME280;36207;51.850;21.698;2023-04-25T10:24:41;98793.65;;;12.12;66.37
50310;BME280;36207;51.850;21.698;2023-04-25T10:27:08;98794.83;;;12.10;66.34
50310;BME280;36207;51.850;21.698;2023-04-25T10:29:35;98797.35;;;12.07;66.57
50310;BME280;36207;51.850;21.698;2023-04-25T10:32:02;98796.88;;;12.03;66.69
50310;BME280;36207;51.850;21.698;2023-04-25T10:34:41;98798.35;;;12.00;66.61
50310;BME280;36207;51.850;21.698;2023-04-25T10:37:09;98798.22;;;11.96;66.61
50310;BME280;36207;51.850;21.698;2023-04-25T10:39:41;98796.89;;;11.91;66.83
50310;BME280;36207;51.850;21.698;2023-04-25T10:42:08;98794.04;;;11.88;66.71
50310;BME280;36207;51.850;21.698;2023-04-25T10:44:37;98795.26;;;11.83;67.01
50310;BME280;36207;51.850;21.698;2023-04-25T10:47:07;98792.36;;;11.77;66.87
50310;BME280;36207;51.850;21.698;2023-04-25T10:49:42;98796.09;;;11.73;67.08
50310;BME280;36207;51.850;21.698;2023-04-25T10:52:38;98793.60;;;11.69;67.06
50310;BME280;36207;51.850;21.698;2023-04-25T10:55:06;98793.39;;;11.66;67.08
50310;BME280;36207;51.850;21.698;2023-04-25T10:57:41;98793.85;;;11.65;67.35
50310;BME280;36207;51.850;21.698;2023-04-25T11:00:16;98792.92;;;11.60;67.36
50310;BME280;36207;51.850;21.698;2023-04-25T11:02:53;98793.35;;;11.57;67.47
50310;BME280;36207;51.850;21.698;2023-04-25T11:05:42;98791.67;;;11.55;67.38
50310;BME280;36207;51.850;21.698;2023-04-25T11:08:11;98791.91;;;11.52;67.42
50310;BME280;36207;51.850;21.698;2023-04-25T11:10:40;98794.22;;;11.51;67.48
50310;BME280;36207;51.850;21.698;2023-04-25T11:13:06;98795.25;;;11.50;67.50
50310;BME280;36207;51.850;21.698;2023-04-25T11:15:32;98796.08;;;11.49;67.50
50310;BME280;36207;51.850;21.698;2023-04-25T11:17:59;98800.67;;;11.50;67.66
50310;BME280;36207;51.850;21.698;2023-04-25T11:20:26;98792.92;;;11.52;67.57
50310;BME280;36207;51.850;21.698;2023-04-25T11:22:57;98789.14;;;11.54;67.82
50310;BME280;36207;51.850;21.698;2023-04-25T11:25:25;98788.52;;;11.56;67.88
50310;BME280;36207;51.850;21.698;2023-04-25T11:27:58;98788.10;;;11.56;67.96
50310;BME280;36207;51.850;21.698;2023-04-25T11:30:27;98790.83;;;11.55;67.99
50310;BME280;36207;51.850;21.698;2023-04-25T11:32:56;98796.40;;;11.52;67.97
50310;BME280;36207;51.850;21.698;2023-04-25T11:35:22;98796.73;;;11.49;67.72
50310;BME280;36207;51.850;21.698;2023-04-25T11:37:51;98800.48;;;11.48;67.91
50310;BME280;36207;51.850;21.698;2023-04-25T11:40:18;98802.38;;;11.47;67.93
50310;BME280;36207;51.850;21.698;2023-04-25T11:42:45;98804.45;;;11.47;67.89
50310;BME280;36207;51.850;21.698;2023-04-25T11:45:13;98801.27;;;11.46;68.03
50310;BME280;36207;51.850;21.698;2023-04-25T11:47:40;98805.59;;;11.46;67.97
50310;BME280;36207;51.850;21.698;2023-04-25T11:50:08;98801.81;;;11.46;68.11
50310;BME280;36207;51.850;21.698;2023-04-25T11:52:42;98801.11;;;11.46;68.23
50310;BME280;36207;51.850;21.698;2023-04-25T11:55:13;98798.86;;;11.46;68.17
50310;BME280;36207;51.850;21.698;2023-04-25T11:57:41;98795.77;;;11.45;68.24
50310;BME280;36207;51.850;21.698;2023-04-25T12:00:21;98796.48;;;11.44;68.03
50310;BME280;36207;51.850;21.698;2023-04-25T12:02:56;98797.39;;;11.42;68.16
50310;BME280;36207;51.850;21.698;2023-04-25T12:05:27;98800.16;;;11.39;68.00
50310;BME280;36207;51.850;21.698;2023-04-25T12:07:54;98800.17;;;11.36;67.95
50310;BME280;36207;51.850;21.698;2023-04-25T12:10:21;98796.02;;;11.36;68.24
50310;BME280;36207;51.850;21.698;2023-04-25T12:12:48;98798.67;;;11.39;68.20
50310;BME280;36207;51.850;21.698;2023-04-25T12:15:16;98797.80;;;11.43;68.41
50310;BME280;36207;51.850;21.698;2023-04-25T12:17:49;98797.71;;;11.42;68.36
50310;BME280;36207;51.850;21.698;2023-04-25T12:20:18;98795.67;;;11.40;68.27
50310;BME280;36207;51.850;21.698;2023-04-25T12:22:52;98797.40;;;11.39;68.14
50310;BME280;36207;51.850;21.698;2023-04-25T12:25:42;98798.85;;;11.40;68.40
50310;BME280;36207;51.850;21.698;2023-04-25T12:28:19;98800.08;;;11.39;68.32
50310;BME280;36207;51.850;21.698;2023-04-25T12:30:53;98798.62;;;11.36;68.09
50310;BME280;36207;51.850;21.698;2023-04-25T12:33:24;98800.45;;;11.34;68.29
50310;BME280;36207;51.850;21.698;2023-04-25T12:35:55;98800.66;;;11.34;68.39
50310;BME280;36207;51.850;21.698;2023-04-25T12:38:27;98800.16;;;11.34;68.47
50310;BME280;36207;51.850;21.698;2023-04-25T12:40:55;98805.21;;;11.33;68.44
50310;BME280;36207;51.850;21.698;2023-04-25T12:43:22;98801.50;;;11.35;68.44
50310;BME280;36207;51.850;21.698;2023-04-25T12:45:53;98798.71;;;11.35;68.53
50310;BME280;36207;51.850;21.698;2023-04-25T12:48:20;98796.61;;;11.35;68.56
50310;BME280;36207;51.850;21.698;2023-04-25T12:50:47;98791.85;;;11.33;68.67
50310;BME280;36207;51.850;21.698;2023-04-25T12:53:19;98791.55;;;11.29;68.44
50310;BME280;36207;51.850;21.698;2023-04-25T12:55:46;98793.03;;;11.27;68.68